sensor_id;sensor_type;location;lat;lon;timestamp;temperature;humidity
65058;HTU21D;51644;51.068;5.860;2023-02-12T00:00:05;9.68;83.83
65058;HTU21D;51644;51.068;5.860;2023-02-12T00:01:14;9.68;83.82
65058;HTU21D;51644;51.068;5.860;2023-02-12T00:02:13;9.69;83.78
65058;HTU21D;51644;51.068;5.860;2023-02-12T00:03:11;9.69;83.74
65058;HTU21D;51644;51.068;5.860;2023-02-12T00:04:10;9.69;83.71
65058;HTU21D;51644;51.068;5.860;2023-02-12T00:05:11;9.67;83.71
65058;HTU21D;51644;51.068;5.860;2023-02-12T00:06:10;9.68;83.71
65058;HTU21D;51644;51.068;5.860;2023-02-12T00:07:09;9.69;83.73
65058;HTU21D;51644;51.068;5.860;2023-02-12T00:08:11;9.69;83.72
65058;HTU21D;51644;51.068;5.860;2023-02-12T00:09:11;9.69;83.71
65058;HTU21D;51644;51.068;5.860;2023-02-12T00:10:13;9.70;83.72
65058;HTU21D;51644;51.068;5.860;2023-02-12T00:11:21;9.71;83.73
65058;HTU21D;51644;51.068;5.860;2023-02-12T00:12:20;9.71;83.72
65058;HTU21D;51644;51.068;5.860;2023-02-12T00:13:19;9.69;83.70
65058;HTU21D;51644;51.068;5.860;2023-02-12T00:14:17;9.68;83.71
65058;HTU21D;51644;51.068;5.860;2023-02-12T00:15:16;9.69;83.74
65058;HTU21D;51644;51.068;5.860;2023-02-12T00:16:20;9.69;83.74
65058;HTU21D;51644;51.068;5.860;2023-02-12T00:17:22;9.70;83.72
65058;HTU21D;51644;51.068;5.860;2023-02-12T00:18:20;9.68;83.73
65058;HTU21D;51644;51.068;5.860;2023-02-12T00:19:19;9.66;83.79
65058;HTU21D;51644;51.068;5.860;2023-02-12T00:20:17;9.65;83.83
65058;HTU21D;51644;51.068;5.860;2023-02-12T00:21:22;9.64;83.92
65058;HTU21D;51644;51.068;5.860;2023-02-12T00:22:21;9.64;83.91
65058;HTU21D;51644;51.068;5.860;2023-02-12T00:23:20;9.64;83.91
65058;HTU21D;51644;51.068;5.860;2023-02-12T00:24:18;9.64;83.90
65058;HTU21D;51644;51.068;5.860;2023-02-12T00:25:22;9.65;83.87
65058;HTU21D;51644;51.068;5.860;2023-02-12T00:26:21;9.66;83.82
65058;HTU21D;51644;51.068;5.860;2023-02-12T00:27:25;9.67;83.76
65058;HTU21D;51644;51.068;5.860;2023-02-12T00:28:23;9.67;83.69
65058;HTU21D;51644;51.068;5.860;2023-02-12T00:29:22;9.67;83.66
65058;HTU21D;51644;51.068;5.860;2023-02-12T00:30:21;9.67;83.61
65058;HTU21D;51644;51.068;5.860;2023-02-12T00:31:26;9.68;83.57
65058;HTU21D;51644;51.068;5.860;2023-02-12T00:32:27;9.68;83.55
65058;HTU21D;51644;51.068;5.860;2023-02-12T00:33:26;9.68;83.54
65058;HTU21D;51644;51.068;5.860;2023-02-12T00:34:25;9.68;83.52
65058;HTU21D;51644;51.068;5.860;2023-02-12T00:35:23;9.68;83.55
65058;HTU21D;51644;51.068;5.860;2023-02-12T00:36:25;9.69;83.52
65058;HTU21D;51644;51.068;5.860;2023-02-12T00:37:24;9.68;83.51
65058;HTU21D;51644;51.068;5.860;2023-02-12T00:38:25;9.68;83.49
65058;HTU21D;51644;51.068;5.860;2023-02-12T00:39:24;9.69;83.48
65058;HTU21D;51644;51.068;5.860;2023-02-12T00:40:23;9.67;83.42
65058;HTU21D;51644;51.068;5.860;2023-02-12T00:41:22;9.66;83.40
65058;HTU21D;51644;51.068;5.860;2023-02-12T00:42:21;9.67;83.36
65058;HTU21D;51644;51.068;5.860;2023-02-12T00:43:19;9.67;83.32
65058;HTU21D;51644;51.068;5.860;2023-02-12T00:44:18;9.66;83.32
65058;HTU21D;51644;51.068;5.860;2023-02-12T00:45:16;9.66;83.29
65058;HTU21D;51644;51.068;5.860;2023-02-12T00:46:15;9.66;83.31
65058;HTU21D;51644;51.068;5.860;2023-02-12T00:47:15;9.66;83.29
65058;HTU21D;51644;51.068;5.860;2023-02-12T00:48:14;9.66;83.29
65058;HTU21D;51644;51.068;5.860;2023-02-12T00:49:13;9.66;83.28
65058;HTU21D;51644;51.068;5.860;2023-02-12T00:50:12;9.65;83.29
65058;HTU21D;51644;51.068;5.860;2023-02-12T00:51:12;9.65;83.32
65058;HTU21D;51644;51.068;5.860;2023-02-12T00:52:11;9.65;83.32
65058;HTU21D;51644;51.068;5.860;2023-02-12T00:53:10;9.64;83.39
65058;HTU21D;51644;51.068;5.860;2023-02-12T00:54:09;9.64;83.44
65058;HTU21D;51644;51.068;5.860;2023-02-12T00:55:08;9.64;83.42
65058;HTU21D;51644;51.068;5.860;2023-02-12T00:56:07;9.64;83.42
65058;HTU21D;51644;51.068;5.860;2023-02-12T00:57:06;9.63;83.44
65058;HTU21D;51644;51.068;5.860;2023-02-12T00:58:05;9.64;83.44
65058;HTU21D;51644;51.068;5.860;2023-02-12T00:59:03;9.63;83.44
65058;HTU21D;51644;51.068;5.860;2023-02-12T01:00:03;9.63;83.45
65058;HTU21D;51644;51.068;5.860;2023-02-12T01:01:02;9.63;83.48
65058;HTU21D;51644;51.068;5.860;2023-02-12T01:02:01;9.63;83.49
65058;HTU21D;51644;51.068;5.860;2023-02-12T01:03:00;9.63;83.42
65058;HTU21D;51644;51.068;5.860;2023-02-12T01:03:59;9.62;83.50
65058;HTU21D;51644;51.068;5.860;2023-02-12T01:04:58;9.61;83.52
65058;HTU21D;51644;51.068;5.860;2023-02-12T01:05:57;9.57;83.59
65058;HTU21D;51644;51.068;5.860;2023-02-12T01:06:55;9.56;83.64
65058;HTU21D;51644;51.068;5.860;2023-02-12T01:07:54;9.55;83.69
65058;HTU21D;51644;51.068;5.860;2023-02-12T01:08:53;9.52;83.82
65058;HTU21D;51644;51.068;5.860;2023-02-12T01:09:52;9.50;83.90
65058;HTU21D;51644;51.068;5.860;2023-02-12T01:10:59;9.49;83.98
65058;HTU21D;51644;51.068;5.860;2023-02-12T01:11:59;9.48;84.04
65058;HTU21D;51644;51.068;5.860;2023-02-12T01:12:58;9.48;84.09
65058;HTU21D;51644;51.068;5.860;2023-02-12T01:13:56;9.47;84.12
65058;HTU21D;51644;51.068;5.860;2023-02-12T01:14:55;9.47;84.15
65058;HTU21D;51644;51.068;5.860;2023-02-12T01:16:21;9.45;84.19
65058;HTU21D;51644;51.068;5.860;2023-02-12T01:17:21;9.45;84.22
65058;HTU21D;51644;51.068;5.860;2023-02-12T01:18:21;9.44;84.27
65058;HTU21D;51644;51.068;5.860;2023-02-12T01:19:19;9.42;84.29
65058;HTU21D;51644;51.068;5.860;2023-02-12T01:20:20;9.44;84.32
65058;HTU21D;51644;51.068;5.860;2023-02-12T01:21:23;9.42;84.35
65058;HTU21D;51644;51.068;5.860;2023-02-12T01:22:22;9.44;84.35
65058;HTU21D;51644;51.068;5.860;2023-02-12T01:23:22;9.44;84.32
65058;HTU21D;51644;51.068;5.860;2023-02-12T01:24:20;9.46;84.29
65058;HTU21D;51644;51.068;5.860;2023-02-12T01:25:19;9.46;84.25
65058;HTU21D;51644;51.068;5.860;2023-02-12T01:26:18;9.45;84.19
65058;HTU21D;51644;51.068;5.860;2023-02-12T01:27:17;9.42;84.22
65058;HTU21D;51644;51.068;5.860;2023-02-12T01:28:16;9.41;84.24
65058;HTU21D;51644;51.068;5.860;2023-02-12T01:29:18;9.44;84.27
65058;HTU21D;51644;51.068;5.860;2023-02-12T01:30:16;9.42;84.25
65058;HTU21D;51644;51.068;5.860;2023-02-12T01:31:18;9.41;84.23
65058;HTU21D;51644;51.068;5.860;2023-02-12T01:32:16;9.39;84.26
65058;HTU21D;51644;51.068;5.860;2023-02-12T01:33:15;9.38;84.30
65058;HTU21D;51644;51.068;5.860;2023-02-12T01:34:16;9.39;84.32
65058;HTU21D;51644;51.068;5.860;2023-02-12T01:35:15;9.40;84.32
65058;HTU21D;51644;51.068;5.860;2023-02-12T01:36:13;9.38;84.32
65058;HTU21D;51644;51.068;5.860;2023-02-12T01:37:12;9.38;84.35
65058;HTU21D;51644;51.068;5.860;2023-02-12T01:38:11;9.37;84.38
65058;HTU21D;51644;51.068;5.860;2023-02-12T01:39:11;9.38;84.44
65058;HTU21D;51644;51.068;5.860;2023-02-12T01:40:13;9.38;84.42
65058;HTU21D;51644;51.068;5.860;2023-02-12T01:41:16;9.38;84.39
65058;HTU21D;51644;51.068;5.860;2023-02-12T01:42:15;9.38;84.36
65058;HTU21D;51644;51.068;5.860;2023-02-12T01:43:16;9.38;84.34
65058;HTU21D;51644;51.068;5.860;2023-02-12T01:45:44;9.40;84.25
65058;HTU21D;51644;51.068;5.860;2023-02-12T01:46:46;9.39;84.25
65058;HTU21D;51644;51.068;5.860;2023-02-12T01:47:46;9.39;84.26
65058;HTU21D;51644;51.068;5.860;2023-02-12T01:48:47;9.38;84.27
65058;HTU21D;51644;51.068;5.860;2023-02-12T01:49:47;9.37;84.24
65058;HTU21D;51644;51.068;5.860;2023-02-12T01:50:48;9.38;84.25
65058;HTU21D;51644;51.068;5.860;2023-02-12T01:51:54;9.38;84.23
65058;HTU21D;51644;51.068;5.860;2023-02-12T01:52:58;9.38;84.23
65058;HTU21D;51644;51.068;5.860;2023-02-12T01:54:00;9.38;84.20
65058;HTU21D;51644;51.068;5.860;2023-02-12T01:55:04;9.39;84.16
65058;HTU21D;51644;51.068;5.860;2023-02-12T01:56:05;9.38;84.11
65058;HTU21D;51644;51.068;5.860;2023-02-12T01:57:08;9.37;84.14
65058;HTU21D;51644;51.068;5.860;2023-02-12T01:58:12;9.38;84.20
65058;HTU21D;51644;51.068;5.860;2023-02-12T01:59:11;9.38;84.20
65058;HTU21D;51644;51.068;5.860;2023-02-12T02:00:17;9.38;84.17
65058;HTU21D;51644;51.068;5.860;2023-02-12T02:01:20;9.39;84.14
65058;HTU21D;51644;51.068;5.860;2023-02-12T02:02:20;9.38;84.18
65058;HTU21D;51644;51.068;5.860;2023-02-12T02:03:20;9.37;84.19
65058;HTU21D;51644;51.068;5.860;2023-02-12T02:04:24;9.36;84.18
65058;HTU21D;51644;51.068;5.860;2023-02-12T02:05:41;9.36;84.18
65058;HTU21D;51644;51.068;5.860;2023-02-12T02:06:56;9.36;84.19
65058;HTU21D;51644;51.068;5.860;2023-02-12T02:07:58;9.37;84.16
65058;HTU21D;51644;51.068;5.860;2023-02-12T02:08:58;9.36;84.16
65058;HTU21D;51644;51.068;5.860;2023-02-12T02:09:58;9.35;84.18
65058;HTU21D;51644;51.068;5.860;2023-02-12T02:11:02;9.35;84.20
65058;HTU21D;51644;51.068;5.860;2023-02-12T02:12:24;9.35;84.24
65058;HTU21D;51644;51.068;5.860;2023-02-12T02:13:42;9.34;84.26
65058;HTU21D;51644;51.068;5.860;2023-02-12T02:15:02;9.34;84.27
65058;HTU21D;51644;51.068;5.860;2023-02-12T02:16:22;9.31;84.35
65058;HTU21D;51644;51.068;5.860;2023-02-12T02:19:19;9.30;84.43
65058;HTU21D;51644;51.068;5.860;2023-02-12T02:20:45;9.30;84.46
65058;HTU21D;51644;51.068;5.860;2023-02-12T02:24:50;9.29;84.52
65058;HTU21D;51644;51.068;5.860;2023-02-12T02:30:15;9.25;84.58
65058;HTU21D;51644;51.068;5.860;2023-02-12T02:31:42;9.26;84.58
65058;HTU21D;51644;51.068;5.860;2023-02-12T02:32:57;9.25;84.56
65058;HTU21D;51644;51.068;5.860;2023-02-12T02:34:07;9.25;84.62
65058;HTU21D;51644;51.068;5.860;2023-02-12T02:35:31;9.24;84.68
65058;HTU21D;51644;51.068;5.860;2023-02-12T02:36:46;9.24;84.70
65058;HTU21D;51644;51.068;5.860;2023-02-12T02:38:13;9.24;84.71
65058;HTU21D;51644;51.068;5.860;2023-02-12T02:39:21;9.25;84.68
65058;HTU21D;51644;51.068;5.860;2023-02-12T02:40:45;9.24;84.71
65058;HTU21D;51644;51.068;5.860;2023-02-12T02:41:57;9.23;84.68
65058;HTU21D;51644;51.068;5.860;2023-02-12T02:43:20;9.20;84.75
65058;HTU21D;51644;51.068;5.860;2023-02-12T02:44:35;9.18;84.90
65058;HTU21D;51644;51.068;5.860;2023-02-12T02:45:44;9.18;84.96
65058;HTU21D;51644;51.068;5.860;2023-02-12T02:46:57;9.19;85.03
65058;HTU21D;51644;51.068;5.860;2023-02-12T02:49:06;9.20;84.96
65058;HTU21D;51644;51.068;5.860;2023-02-12T02:50:08;9.19;84.96
65058;HTU21D;51644;51.068;5.860;2023-02-12T02:51:19;9.20;84.97
65058;HTU21D;51644;51.068;5.860;2023-02-12T02:52:30;9.19;84.99
65058;HTU21D;51644;51.068;5.860;2023-02-12T02:53:38;9.20;84.95
65058;HTU21D;51644;51.068;5.860;2023-02-12T02:54:45;9.21;84.90
65058;HTU21D;51644;51.068;5.860;2023-02-12T02:55:50;9.21;84.83
65058;HTU21D;51644;51.068;5.860;2023-02-12T02:56:57;9.23;84.79
65058;HTU21D;51644;51.068;5.860;2023-02-12T02:58:11;9.23;84.76
65058;HTU21D;51644;51.068;5.860;2023-02-12T02:59:18;9.24;84.68
65058;HTU21D;51644;51.068;5.860;2023-02-12T03:00:26;9.26;84.60
65058;HTU21D;51644;51.068;5.860;2023-02-12T03:01:50;9.27;84.51
65058;HTU21D;51644;51.068;5.860;2023-02-12T03:02:57;9.30;84.42
65058;HTU21D;51644;51.068;5.860;2023-02-12T03:04:03;9.30;84.36
65058;HTU21D;51644;51.068;5.860;2023-02-12T03:05:10;9.31;84.31
65058;HTU21D;51644;51.068;5.860;2023-02-12T03:06:19;9.32;84.31
65058;HTU21D;51644;51.068;5.860;2023-02-12T03:07:37;9.31;84.28
65058;HTU21D;51644;51.068;5.860;2023-02-12T03:08:45;9.32;84.26
65058;HTU21D;51644;51.068;5.860;2023-02-12T03:09:57;9.33;84.23
65058;HTU21D;51644;51.068;5.860;2023-02-12T03:12:57;9.33;84.16
65058;HTU21D;51644;51.068;5.860;2023-02-12T03:14:08;9.33;84.10
65058;HTU21D;51644;51.068;5.860;2023-02-12T03:16:25;9.34;84.03
65058;HTU21D;51644;51.068;5.860;2023-02-12T03:17:39;9.33;83.99
65058;HTU21D;51644;51.068;5.860;2023-02-12T03:18:48;9.33;83.95
65058;HTU21D;51644;51.068;5.860;2023-02-12T03:19:55;9.32;84.00
65058;HTU21D;51644;51.068;5.860;2023-02-12T03:21:01;9.32;84.03
65058;HTU21D;51644;51.068;5.860;2023-02-12T03:22:11;9.31;84.05
65058;HTU21D;51644;51.068;5.860;2023-02-12T03:23:23;9.32;84.07
65058;HTU21D;51644;51.068;5.860;2023-02-12T03:24:42;9.31;84.04
65058;HTU21D;51644;51.068;5.860;2023-02-12T03:26:04;9.31;84.09
65058;HTU21D;51644;51.068;5.860;2023-02-12T03:27:07;9.30;84.13
65058;HTU21D;51644;51.068;5.860;2023-02-12T03:28:21;9.29;84.18
65058;HTU21D;51644;51.068;5.860;2023-02-12T03:29:23;9.29;84.22
65058;HTU21D;51644;51.068;5.860;2023-02-12T03:30:29;9.29;84.24
65058;HTU21D;51644;51.068;5.860;2023-02-12T03:33:02;9.29;84.30
65058;HTU21D;51644;51.068;5.860;2023-02-12T03:35:34;9.30;84.29
65058;HTU21D;51644;51.068;5.860;2023-02-12T03:36:52;9.29;84.32
65058;HTU21D;51644;51.068;5.860;2023-02-12T03:39:12;9.29;84.34
65058;HTU21D;51644;51.068;5.860;2023-02-12T03:40:43;9.30;84.34
65058;HTU21D;51644;51.068;5.860;2023-02-12T03:42:03;9.30;84.34
65058;HTU21D;51644;51.068;5.860;2023-02-12T03:43:29;9.30;84.35
65058;HTU21D;51644;51.068;5.860;2023-02-12T03:45:40;9.30;84.32
65058;HTU21D;51644;51.068;5.860;2023-02-12T03:48:23;9.31;84.31
65058;HTU21D;51644;51.068;5.860;2023-02-12T03:49:33;9.30;84.29
65058;HTU21D;51644;51.068;5.860;2023-02-12T03:50:45;9.31;84.24
65058;HTU21D;51644;51.068;5.860;2023-02-12T03:51:45;9.29;84.24
65058;HTU21D;51644;51.068;5.860;2023-02-12T03:52:46;9.30;84.23
65058;HTU21D;51644;51.068;5.860;2023-02-12T03:53:47;9.27;84.23
65058;HTU21D;51644;51.068;5.860;2023-02-12T03:54:46;9.30;84.23
65058;HTU21D;51644;51.068;5.860;2023-02-12T03:55:50;9.30;84.22
65058;HTU21D;51644;51.068;5.860;2023-02-12T03:57:05;9.30;84.21
65058;HTU21D;51644;51.068;5.860;2023-02-12T03:58:08;9.30;84.16
65058;HTU21D;51644;51.068;5.860;2023-02-12T03:59:08;9.29;84.16
65058;HTU21D;51644;51.068;5.860;2023-02-12T04:01:19;9.24;84.27
65058;HTU21D;51644;51.068;5.860;2023-02-12T04:02:18;9.22;84.36
65058;HTU21D;51644;51.068;5.860;2023-02-12T04:03:17;9.18;84.46
65058;HTU21D;51644;51.068;5.860;2023-02-12T04:04:17;9.17;84.58
65058;HTU21D;51644;51.068;5.860;2023-02-12T04:05:21;9.17;84.73
65058;HTU21D;51644;51.068;5.860;2023-02-12T04:06:23;9.14;84.81
65058;HTU21D;51644;51.068;5.860;2023-02-12T04:07:26;9.15;84.88
65058;HTU21D;51644;51.068;5.860;2023-02-12T04:08:27;9.15;84.93
65058;HTU21D;51644;51.068;5.860;2023-02-12T04:09:27;9.16;84.93
65058;HTU21D;51644;51.068;5.860;2023-02-12T04:10:41;9.15;84.94
65058;HTU21D;51644;51.068;5.860;2023-02-12T04:12:14;9.15;85.03
65058;HTU21D;51644;51.068;5.860;2023-02-12T04:13:27;9.12;85.03
65058;HTU21D;51644;51.068;5.860;2023-02-12T04:14:49;9.14;85.06
65058;HTU21D;51644;51.068;5.860;2023-02-12T04:18:43;9.12;85.00
65058;HTU21D;51644;51.068;5.860;2023-02-12T04:24:12;9.07;85.22
65058;HTU21D;51644;51.068;5.860;2023-02-12T04:25:22;9.08;85.21
65058;HTU21D;51644;51.068;5.860;2023-02-12T04:26:35;9.09;85.16
65058;HTU21D;51644;51.068;5.860;2023-02-12T04:27:47;9.10;85.10
65058;HTU21D;51644;51.068;5.860;2023-02-12T04:30:28;9.07;85.23
65058;HTU21D;51644;51.068;5.860;2023-02-12T04:31:39;9.07;85.33
65058;HTU21D;51644;51.068;5.860;2023-02-12T04:32:52;9.06;85.42
65058;HTU21D;51644;51.068;5.860;2023-02-12T04:34:04;9.07;85.43
65058;HTU21D;51644;51.068;5.860;2023-02-12T04:35:37;9.08;85.46
65058;HTU21D;51644;51.068;5.860;2023-02-12T04:36:53;9.05;85.49
65058;HTU21D;51644;51.068;5.860;2023-02-12T04:39:02;9.02;85.66
65058;HTU21D;51644;51.068;5.860;2023-02-12T04:40:06;9.01;85.68
65058;HTU21D;51644;51.068;5.860;2023-02-12T04:41:11;8.97;85.80
65058;HTU21D;51644;51.068;5.860;2023-02-12T04:42:10;8.97;85.92
65058;HTU21D;51644;51.068;5.860;2023-02-12T04:43:09;9.00;86.00
65058;HTU21D;51644;51.068;5.860;2023-02-12T04:44:22;9.01;86.01
65058;HTU21D;51644;51.068;5.860;2023-02-12T04:45:26;9.02;85.93
65058;HTU21D;51644;51.068;5.860;2023-02-12T04:46:25;9.03;85.85
65058;HTU21D;51644;51.068;5.860;2023-02-12T04:47:24;9.04;85.77
65058;HTU21D;51644;51.068;5.860;2023-02-12T04:48:23;9.03;85.78
65058;HTU21D;51644;51.068;5.860;2023-02-12T04:49:23;9.03;85.80
65058;HTU21D;51644;51.068;5.860;2023-02-12T04:50:22;9.04;85.80
65058;HTU21D;51644;51.068;5.860;2023-02-12T04:51:21;9.03;85.79
65058;HTU21D;51644;51.068;5.860;2023-02-12T04:52:23;9.04;85.78
65058;HTU21D;51644;51.068;5.860;2023-02-12T04:53:21;9.04;85.74
65058;HTU21D;51644;51.068;5.860;2023-02-12T04:54:21;9.04;85.67
65058;HTU21D;51644;51.068;5.860;2023-02-12T04:55:20;9.07;85.61
65058;HTU21D;51644;51.068;5.860;2023-02-12T04:56:19;9.08;85.54
65058;HTU21D;51644;51.068;5.860;2023-02-12T04:57:17;9.09;85.49
65058;HTU21D;51644;51.068;5.860;2023-02-12T04:58:16;9.10;85.40
65058;HTU21D;51644;51.068;5.860;2023-02-12T04:59:16;9.10;85.38
65058;HTU21D;51644;51.068;5.860;2023-02-12T05:00:15;9.11;85.40
65058;HTU21D;51644;51.068;5.860;2023-02-12T05:01:13;9.11;85.38
65058;HTU21D;51644;51.068;5.860;2023-02-12T05:02:12;9.11;85.38
65058;HTU21D;51644;51.068;5.860;2023-02-12T05:03:11;9.12;85.33
65058;HTU21D;51644;51.068;5.860;2023-02-12T05:04:13;9.15;85.27
65058;HTU21D;51644;51.068;5.860;2023-02-12T05:05:12;9.15;85.22
65058;HTU21D;51644;51.068;5.860;2023-02-12T05:06:11;9.16;85.16
65058;HTU21D;51644;51.068;5.860;2023-02-12T05:07:10;9.16;85.13
65058;HTU21D;51644;51.068;5.860;2023-02-12T05:08:09;9.17;85.10
65058;HTU21D;51644;51.068;5.860;2023-02-12T05:09:11;9.17;85.08
65058;HTU21D;51644;51.068;5.860;2023-02-12T05:10:10;9.17;85.05
65058;HTU21D;51644;51.068;5.860;2023-02-12T05:11:10;9.18;85.03
65058;HTU21D;51644;51.068;5.860;2023-02-12T05:12:08;9.19;85.02
65058;HTU21D;51644;51.068;5.860;2023-02-12T05:13:07;9.19;85.02
65058;HTU21D;51644;51.068;5.860;2023-02-12T05:14:08;9.19;85.00
65058;HTU21D;51644;51.068;5.860;2023-02-12T05:15:08;9.19;84.99
65058;HTU21D;51644;51.068;5.860;2023-02-12T05:16:10;9.19;84.99
65058;HTU21D;51644;51.068;5.860;2023-02-12T05:17:12;9.18;85.04
65058;HTU21D;51644;51.068;5.860;2023-02-12T05:18:10;9.18;85.09
65058;HTU21D;51644;51.068;5.860;2023-02-12T05:19:09;9.17;85.11
65058;HTU21D;51644;51.068;5.860;2023-02-12T05:20:11;9.17;85.09
65058;HTU21D;51644;51.068;5.860;2023-02-12T05:21:10;9.18;85.07
65058;HTU21D;51644;51.068;5.860;2023-02-12T05:22:08;9.19;85.04
65058;HTU21D;51644;51.068;5.860;2023-02-12T05:23:07;9.18;85.03
65058;HTU21D;51644;51.068;5.860;2023-02-12T05:24:09;9.19;84.97
65058;HTU21D;51644;51.068;5.860;2023-02-12T05:25:07;9.19;84.93
65058;HTU21D;51644;51.068;5.860;2023-02-12T05:26:10;9.19;84.88
65058;HTU21D;51644;51.068;5.860;2023-02-12T05:27:22;9.20;84.83
65058;HTU21D;51644;51.068;5.860;2023-02-12T05:28:21;9.19;84.75
65058;HTU21D;51644;51.068;5.860;2023-02-12T05:29:20;9.19;84.73
65058;HTU21D;51644;51.068;5.860;2023-02-12T05:30:18;9.18;84.71
65058;HTU21D;51644;51.068;5.860;2023-02-12T05:31:18;9.17;84.79
65058;HTU21D;51644;51.068;5.860;2023-02-12T05:32:17;9.16;84.88
65058;HTU21D;51644;51.068;5.860;2023-02-12T05:33:16;9.14;84.94
65058;HTU21D;51644;51.068;5.860;2023-02-12T05:34:14;9.14;85.00
65058;HTU21D;51644;51.068;5.860;2023-02-12T05:35:13;9.14;85.00
65058;HTU21D;51644;51.068;5.860;2023-02-12T05:36:19;9.14;84.89
65058;HTU21D;51644;51.068;5.860;2023-02-12T05:37:18;9.14;84.80
65058;HTU21D;51644;51.068;5.860;2023-02-12T05:38:16;9.15;84.74
65058;HTU21D;51644;51.068;5.860;2023-02-12T05:39:15;9.14;84.71
65058;HTU21D;51644;51.068;5.860;2023-02-12T05:40:16;9.15;84.71
65058;HTU21D;51644;51.068;5.860;2023-02-12T05:41:21;9.16;84.70
65058;HTU21D;51644;51.068;5.860;2023-02-12T05:42:20;9.15;84.70
65058;HTU21D;51644;51.068;5.860;2023-02-12T05:43:18;9.15;84.73
65058;HTU21D;51644;51.068;5.860;2023-02-12T05:44:17;9.17;84.75
65058;HTU21D;51644;51.068;5.860;2023-02-12T05:45:15;9.16;84.77
65058;HTU21D;51644;51.068;5.860;2023-02-12T05:46:16;9.17;84.79
65058;HTU21D;51644;51.068;5.860;2023-02-12T05:47:14;9.17;84.79
65058;HTU21D;51644;51.068;5.860;2023-02-12T05:48:13;9.18;84.80
65058;HTU21D;51644;51.068;5.860;2023-02-12T05:49:12;9.17;84.81
65058;HTU21D;51644;51.068;5.860;2023-02-12T05:50:10;9.18;84.81
65058;HTU21D;51644;51.068;5.860;2023-02-12T05:51:15;9.17;84.81
65058;HTU21D;51644;51.068;5.860;2023-02-12T05:52:14;9.17;84.84
65058;HTU21D;51644;51.068;5.860;2023-02-12T05:53:12;9.15;84.84
65058;HTU21D;51644;51.068;5.860;2023-02-12T05:54:14;9.16;84.85
65058;HTU21D;51644;51.068;5.860;2023-02-12T05:55:13;9.16;84.85
65058;HTU21D;51644;51.068;5.860;2023-02-12T05:56:22;9.16;84.85
65058;HTU21D;51644;51.068;5.860;2023-02-12T05:57:21;9.15;84.88
65058;HTU21D;51644;51.068;5.860;2023-02-12T05:58:20;9.15;84.89
65058;HTU21D;51644;51.068;5.860;2023-02-12T05:59:32;9.14;84.93
65058;HTU21D;51644;51.068;5.860;2023-02-12T06:00:31;9.15;84.92
65058;HTU21D;51644;51.068;5.860;2023-02-12T06:01:36;9.15;84.90
65058;HTU21D;51644;51.068;5.860;2023-02-12T06:02:35;9.16;84.83
65058;HTU21D;51644;51.068;5.860;2023-02-12T06:03:34;9.14;84.79
65058;HTU21D;51644;51.068;5.860;2023-02-12T06:04:32;9.14;84.79
65058;HTU21D;51644;51.068;5.860;2023-02-12T06:05:31;9.12;84.82
65058;HTU21D;51644;51.068;5.860;2023-02-12T06:06:30;9.12;84.85
65058;HTU21D;51644;51.068;5.860;2023-02-12T06:07:29;9.12;84.84
65058;HTU21D;51644;51.068;5.860;2023-02-12T06:08:28;9.12;84.85
65058;HTU21D;51644;51.068;5.860;2023-02-12T06:09:26;9.12;84.86
65058;HTU21D;51644;51.068;5.860;2023-02-12T06:10:25;9.14;84.83
65058;HTU21D;51644;51.068;5.860;2023-02-12T06:11:24;9.15;84.80
65058;HTU21D;51644;51.068;5.860;2023-02-12T06:12:23;9.12;84.81
65058;HTU21D;51644;51.068;5.860;2023-02-12T06:13:21;9.12;84.82
65058;HTU21D;51644;51.068;5.860;2023-02-12T06:14:20;9.14;84.81
65058;HTU21D;51644;51.068;5.860;2023-02-12T06:15:19;9.15;84.76
65058;HTU21D;51644;51.068;5.860;2023-02-12T06:17:18;9.14;84.66
65058;HTU21D;51644;51.068;5.860;2023-02-12T06:18:17;9.14;84.66
65058;HTU21D;51644;51.068;5.860;2023-02-12T06:19:16;9.15;84.71
65058;HTU21D;51644;51.068;5.860;2023-02-12T06:20:16;9.16;84.70
65058;HTU21D;51644;51.068;5.860;2023-02-12T06:21:17;9.15;84.69
65058;HTU21D;51644;51.068;5.860;2023-02-12T06:22:15;9.14;84.71
65058;HTU21D;51644;51.068;5.860;2023-02-12T06:23:15;9.10;84.74
65058;HTU21D;51644;51.068;5.860;2023-02-12T06:24:16;9.08;84.83
65058;HTU21D;51644;51.068;5.860;2023-02-12T06:25:14;9.05;84.92
65058;HTU21D;51644;51.068;5.860;2023-02-12T06:26:14;9.05;85.06
65058;HTU21D;51644;51.068;5.860;2023-02-12T06:27:12;9.06;85.13
65058;HTU21D;51644;51.068;5.860;2023-02-12T06:28:11;9.06;85.13
65058;HTU21D;51644;51.068;5.860;2023-02-12T06:29:10;9.06;85.12
65058;HTU21D;51644;51.068;5.860;2023-02-12T06:30:21;9.06;85.10
65058;HTU21D;51644;51.068;5.860;2023-02-12T06:31:28;9.06;85.13
65058;HTU21D;51644;51.068;5.860;2023-02-12T06:32:27;9.06;85.09
65058;HTU21D;51644;51.068;5.860;2023-02-12T06:33:25;9.06;85.06
65058;HTU21D;51644;51.068;5.860;2023-02-12T06:34:24;9.06;85.07
65058;HTU21D;51644;51.068;5.860;2023-02-12T06:35:22;9.03;85.13
65058;HTU21D;51644;51.068;5.860;2023-02-12T06:36:27;9.01;85.17
65058;HTU21D;51644;51.068;5.860;2023-02-12T06:37:25;8.98;85.25
65058;HTU21D;51644;51.068;5.860;2023-02-12T06:38:24;8.97;85.31
65058;HTU21D;51644;51.068;5.860;2023-02-12T06:39:23;8.98;85.33
65058;HTU21D;51644;51.068;5.860;2023-02-12T06:40:24;8.97;85.35
65058;HTU21D;51644;51.068;5.860;2023-02-12T06:41:23;8.98;85.36
65058;HTU21D;51644;51.068;5.860;2023-02-12T06:42:21;8.98;85.38
65058;HTU21D;51644;51.068;5.860;2023-02-12T06:43:20;9.00;85.40
65058;HTU21D;51644;51.068;5.860;2023-02-12T06:44:19;9.01;85.39
65058;HTU21D;51644;51.068;5.860;2023-02-12T06:45:17;9.01;85.37
65058;HTU21D;51644;51.068;5.860;2023-02-12T06:46:16;9.00;85.35
65058;HTU21D;51644;51.068;5.860;2023-02-12T06:47:14;8.97;85.41
65058;HTU21D;51644;51.068;5.860;2023-02-12T06:48:13;8.94;85.47
65058;HTU21D;51644;51.068;5.860;2023-02-12T06:49:14;8.93;85.58
65058;HTU21D;51644;51.068;5.860;2023-02-12T06:50:14;8.92;85.64
65058;HTU21D;51644;51.068;5.860;2023-02-12T06:51:24;8.90;85.73
65058;HTU21D;51644;51.068;5.860;2023-02-12T06:52:22;8.90;85.79
65058;HTU21D;51644;51.068;5.860;2023-02-12T06:53:21;8.90;85.84
65058;HTU21D;51644;51.068;5.860;2023-02-12T06:54:22;8.91;85.85
65058;HTU21D;51644;51.068;5.860;2023-02-12T06:55:21;8.91;85.82
65058;HTU21D;51644;51.068;5.860;2023-02-12T06:56:21;8.92;85.76
65058;HTU21D;51644;51.068;5.860;2023-02-12T06:57:20;8.92;85.70
65058;HTU21D;51644;51.068;5.860;2023-02-12T06:58:18;8.92;85.71
65058;HTU21D;51644;51.068;5.860;2023-02-12T06:59:17;8.92;85.71
65058;HTU21D;51644;51.068;5.860;2023-02-12T07:00:16;8.93;85.68
65058;HTU21D;51644;51.068;5.860;2023-02-12T07:01:18;8.92;85.64
65058;HTU21D;51644;51.068;5.860;2023-02-12T07:02:18;8.93;85.58
65058;HTU21D;51644;51.068;5.860;2023-02-12T07:03:16;8.95;85.54
65058;HTU21D;51644;51.068;5.860;2023-02-12T07:04:15;8.95;85.49
65058;HTU21D;51644;51.068;5.860;2023-02-12T07:05:14;8.97;85.44
65058;HTU21D;51644;51.068;5.860;2023-02-12T07:06:13;8.97;85.36
65058;HTU21D;51644;51.068;5.860;2023-02-12T07:07:12;8.98;85.32
65058;HTU21D;51644;51.068;5.860;2023-02-12T07:08:11;9.01;85.30
65058;HTU21D;51644;51.068;5.860;2023-02-12T07:09:10;9.02;85.24
65058;HTU21D;51644;51.068;5.860;2023-02-12T07:10:08;9.02;85.18
65058;HTU21D;51644;51.068;5.860;2023-02-12T07:11:08;9.03;85.13